Time;durP1;ratioP1;P1;durP2;ratioP2;P2;SDS_P1;SDS_P2;PMS_P1;PMS_P2;Temp;Humidity;BMP_temperature;BMP_pressure;BME280_temperature;BME280_humidity;BME280_pressure;Samples;Min_cycle;Max_cycle;Signal;HPM_P1;HPM_P2
2022/12/23 00:00:14;;;;;;;28.55;9.88;;;;;;;;;;5065389;28;20064;-61
2022/12/23 00:02:39;;;;;;;19.02;8.50;;;;;;;;;;5047370;28;20069;-60
2022/12/23 00:05:05;;;;;;;24.27;9.55;;;;;;;;;;5049711;28;20064;-60
2022/12/23 00:07:31;;;;;;;23.90;9.35;;;;;;;;;;5048445;28;20488;-60
2022/12/23 00:09:56;;;;;;;23.00;8.48;;;;;;;;;;5050252;28;20047;-61
2022/12/23 00:15:07;;;;;;;22.88;9.05;;;;;;;;;;5047750;28;20082;-61
2022/12/23 00:17:33;;;;;;;25.08;9.07;;;;;;;;;;5048293;28;20033;-61
2022/12/23 00:19:59;;;;;;;16.63;8.18;;;;;;;;;;5047619;28;20549;-62
2022/12/23 00:25:09;;;;;;;20.92;8.77;;;;;;;;;;5048141;28;20067;-62
2022/12/23 00:27:35;;;;;;;20.80;8.57;;;;;;;;;;5045236;28;20040;-62
2022/12/23 00:30:00;;;;;;;23.98;8.27;;;;;;;;;;5033561;28;20037;-62
2022/12/23 00:32:26;;;;;;;22.65;7.43;;;;;;;;;;5036829;28;20041;-62
2022/12/23 00:34:51;;;;;;;17.70;7.05;;;;;;;;;;5031606;28;20074;-62
2022/12/23 00:37:17;;;;;;;22.88;7.72;;;;;;;;;;5044424;28;20218;-62
2022/12/23 00:45:16;;;;;;;17.67;7.90;;;;;;;;;;5042726;28;20106;-62
2022/12/23 00:50:27;;;;;;;18.10;7.00;;;;;;;;;;5053510;28;20040;-63
2022/12/23 00:52:53;;;;;;;18.23;7.32;;;;;;;;;;5053772;28;20025;-62
2022/12/23 00:55:18;;;;;;;27.60;8.30;;;;;;;;;;5054372;28;20086;-63
2022/12/23 00:57:44;;;;;;;21.20;7.82;;;;;;;;;;5054704;28;20409;-63
2022/12/23 01:00:10;;;;;;;21.42;7.40;;;;;;;;;;5046435;28;20082;-63
2022/12/23 01:05:35;;;;;;;26.63;8.57;;;;;;;;;;5052282;28;20031;-62
2022/12/23 01:08:01;;;;;;;21.13;8.20;;;;;;;;;;5039487;28;20036;-61
2022/12/23 01:10:26;;;;;;;21.25;8.27;;;;;;;;;;5035325;28;20041;-61
2022/12/23 01:12:52;;;;;;;26.27;10.07;;;;;;;;;;5040191;28;20036;-60
2022/12/23 01:15:17;;;;;;;32.38;10.00;;;;;;;;;;5038004;28;20121;-60
2022/12/23 01:17:42;;;;;;;25.27;9.82;;;;;;;;;;5049784;28;20036;-60
2022/12/23 01:20:08;;;;;;;26.55;11.05;;;;;;;;;;5052000;28;20037;-61
2022/12/23 01:22:33;;;;;;;24.73;10.20;;;;;;;;;;5049770;28;20296;-60
2022/12/23 01:24:59;;;;;;;32.05;11.07;;;;;;;;;;5041106;28;20084;-62
2022/12/23 01:27:24;;;;;;;29.27;10.40;;;;;;;;;;5033859;28;20433;-62
2022/12/23 01:29:50;;;;;;;24.10;9.20;;;;;;;;;;5044146;28;20126;-61
2022/12/23 01:32:15;;;;;;;28.70;11.52;;;;;;;;;;5045699;28;20033;-60
2022/12/23 01:34:40;;;;;;;27.23;11.20;;;;;;;;;;5052571;28;20095;-61
2022/12/23 01:37:06;;;;;;;26.35;10.93;;;;;;;;;;5036139;28;20033;-61
2022/12/23 01:39:31;;;;;;;27.38;11.02;;;;;;;;;;5046633;28;20496;-60
2022/12/23 01:45:10;;;;;;;26.98;10.88;;;;;;;;;;5054321;28;20567;-60
2022/12/23 01:47:51;;;;;;;26.55;12.48;;;;;;;;;;5052220;28;20416;-60
2022/12/23 01:50:29;;;;;;;19.80;8.98;;;;;;;;;;5053368;28;20036;-61
2022/12/23 01:53:24;;;;;;;25.10;11.93;;;;;;;;;;5054372;28;20063;-60
2022/12/23 01:56:02;;;;;;;28.23;13.15;;;;;;;;;;5033546;28;20025;-61
2022/12/23 01:58:45;;;;;;;28.20;12.50;;;;;;;;;;5035983;28;20450;-61
2022/12/23 02:03:59;;;;;;;28.42;12.23;;;;;;;;;;5052165;28;20035;-61
2022/12/23 02:09:20;;;;;;;32.42;14.95;;;;;;;;;;5043458;28;20407;-61
2022/12/23 02:12:36;;;;;;;26.40;11.70;;;;;;;;;;5041701;28;20036;-61
2022/12/23 02:18:17;;;;;;;23.05;11.38;;;;;;;;;;5047252;28;20071;-61
2022/12/23 02:21:20;;;;;;;29.60;15.05;;;;;;;;;;5053497;28;20040;-61
2022/12/23 02:24:23;;;;;;;24.00;12.90;;;;;;;;;;5051805;28;20037;-61
2022/12/23 02:27:10;;;;;;;33.20;15.93;;;;;;;;;;5050790;28;20326;-61
2022/12/23 02:29:47;;;;;;;33.47;15.10;;;;;;;;;;5050776;28;20029;-61
2022/12/23 02:32:37;;;;;;;32.42;15.85;;;;;;;;;;5051658;28;20033;-61
2022/12/23 02:35:19;;;;;;;36.60;16.05;;;;;;;;;;5048524;28;20040;-61
2022/12/23 02:37:54;;;;;;;31.15;15.02;;;;;;;;;;5049787;28;20526;-61
2022/12/23 02:40:38;;;;;;;36.22;16.73;;;;;;;;;;5063892;28;20083;-61
2022/12/23 02:43:28;;;;;;;21.52;11.63;;;;;;;;;;5051104;28;20033;-62
2022/12/23 02:46:20;;;;;;;37.73;17.53;;;;;;;;;;5041616;28;20080;-61
2022/12/23 02:48:50;;;;;;;40.78;19.00;;;;;;;;;;5052662;28;20120;-60
2022/12/23 02:51:19;;;;;;;38.55;18.10;;;;;;;;;;5051345;28;20028;-61
2022/12/23 02:53:55;;;;;;;37.83;18.13;;;;;;;;;;5051539;28;20428;-61
2022/12/23 02:56:23;;;;;;;33.58;16.63;;;;;;;;;;5060220;28;20099;-61
2022/12/23 02:59:00;;;;;;;35.95;18.05;;;;;;;;;;5052920;28;20389;-61
2022/12/23 03:01:28;;;;;;;42.75;19.48;;;;;;;;;;5049166;28;20634;-60
2022/12/23 03:03:53;;;;;;;41.65;19.13;;;;;;;;;;5037506;28;20052;-60
2022/12/23 03:06:27;;;;;;;46.58;19.88;;;;;;;;;;5050934;28;20064;-61
2022/12/23 03:08:55;;;;;;;37.30;17.38;;;;;;;;;;5035037;28;20068;-61
2022/12/23 03:11:23;;;;;;;42.45;20.25;;;;;;;;;;5036451;28;20037;-60
2022/12/23 03:13:54;;;;;;;44.90;19.08;;;;;;;;;;5034661;28;20064;-60
2022/12/23 03:16:22;;;;;;;;;;;;;;;;;;5045656;28;20029;-61
2022/12/23 03:19:19;;;;;;;35.45;16.85;;;;;;;;;;5036872;28;19999;-60
2022/12/23 03:21:51;;;;;;;38.28;17.80;;;;;;;;;;5049614;28;20036;-60
2022/12/23 03:24:43;;;;;;;37.75;17.17;;;;;;;;;;5047175;28;20040;-61
2022/12/23 03:27:17;;;;;;;37.35;17.75;;;;;;;;;;5050031;28;20381;-61
2022/12/23 03:30:02;;;;;;;37.65;17.38;;;;;;;;;;5040009;28;20037;-60
2022/12/23 03:32:35;;;;;;;33.25;15.23;;;;;;;;;;5035461;28;20356;-60
2022/12/23 03:35:03;;;;;;;33.50;15.35;;;;;;;;;;5041332;28;20037;-60
2022/12/23 03:37:32;;;;;;;33.50;17.05;;;;;;;;;;5043058;28;20290;-60
2022/12/23 03:40:07;;;;;;;32.40;15.80;;;;;;;;;;5051580;28;20039;-60
2022/12/23 03:42:39;;;;;;;35.35;18.08;;;;;;;;;;5045559;28;20083;-61
2022/12/23 03:45:34;;;;;;;35.08;17.92;;;;;;;;;;5045761;28;20119;-61
2022/12/23 03:48:06;;;;;;;35.28;15.55;;;;;;;;;;5042242;28;20063;-61
2022/12/23 03:50:33;;;;;;;30.75;13.60;;;;;;;;;;5064333;28;20037;-60
2022/12/23 03:53:09;;;;;;;34.83;16.23;;;;;;;;;;5045395;28;20088;-61
2022/12/23 03:55:47;;;;;;;34.13;15.48;;;;;;;;;;5040961;28;20116;-61
2022/12/23 03:58:37;;;;;;;37.70;17.02;;;;;;;;;;5049662;28;20044;-61
2022/12/23 04:01:21;;;;;;;32.88;14.75;;;;;;;;;;5049039;28;20036;-61
2022/12/23 04:04:04;;;;;;;32.50;15.82;;;;;;;;;;5049753;28;20402;-60
2022/12/23 04:06:44;;;;;;;36.28;18.35;;;;;;;;;;5049765;28;20047;-61
2022/12/23 04:09:10;;;;;;;32.35;15.40;;;;;;;;;;5063198;28;20733;-61
2022/12/23 04:11:37;;;;;;;37.38;18.40;;;;;;;;;;5047717;28;20033;-60
2022/12/23 04:14:02;;;;;;;40.67;18.45;;;;;;;;;;5048598;28;20036;-60
2022/12/23 04:16:28;;;;;;;40.45;19.48;;;;;;;;;;5048100;28;20143;-61
2022/12/23 04:18:54;;;;;;;38.85;17.90;;;;;;;;;;5047365;28;20037;-60
2022/12/23 04:21:19;;;;;;;45.50;21.23;;;;;;;;;;5049360;28;20040;-60
2022/12/23 04:23:44;;;;;;;35.00;16.83;;;;;;;;;;5044645;28;20115;-60
2022/12/23 04:26:10;;;;;;;28.60;12.95;;;;;;;;;;5045363;28;20030;-61
2022/12/23 04:28:35;;;;;;;42.90;20.60;;;;;;;;;;5032872;28;20083;-60
2022/12/23 04:31:00;;;;;;;39.75;19.38;;;;;;;;;;5047126;28;20036;-61
2022/12/23 04:33:26;;;;;;;48.35;19.80;;;;;;;;;;5047149;28;20037;-61
2022/12/23 04:35:51;;;;;;;46.63;21.15;;;;;;;;;;5050708;28;20453;-61
2022/12/23 04:38:16;;;;;;;44.72;20.48;;;;;;;;;;5047722;28;20035;-60
2022/12/23 04:40:45;;;;;;;45.08;20.80;;;;;;;;;;5049117;28;21053;-60
2022/12/23 04:43:11;;;;;;;43.65;20.45;;;;;;;;;;5043035;28;20036;-61
2022/12/23 04:45:36;;;;;;;52.38;21.98;;;;;;;;;;5045371;28;20048;-61
2022/12/23 04:48:02;;;;;;;42.88;19.00;;;;;;;;;;5048742;28;20060;-61
2022/12/23 04:50:27;;;;;;;43.90;20.23;;;;;;;;;;5049550;28;20052;-61
2022/12/23 04:52:53;;;;;;;47.47;18.42;;;;;;;;;;5066720;28;20032;-61
2022/12/23 04:55:18;;;;;;;38.88;17.58;;;;;;;;;;5050127;28;20521;-60
2022/12/23 04:57:47;;;;;;;39.60;17.52;;;;;;;;;;5049934;28;20052;-61
2022/12/23 05:00:13;;;;;;;32.67;15.32;;;;;;;;;;5047760;28;20064;-59
2022/12/23 05:02:38;;;;;;;31.95;13.38;;;;;;;;;;5045251;28;20120;-58
2022/12/23 05:05:04;;;;;;;32.63;13.73;;;;;;;;;;5047271;28;20116;-61
2022/12/23 05:07:30;;;;;;;35.75;16.48;;;;;;;;;;5049126;28;20033;-61
2022/12/23 05:10:00;;;;;;;38.22;17.08;;;;;;;;;;5048154;28;20117;-60
2022/12/23 05:12:29;;;;;;;38.23;17.40;;;;;;;;;;5042743;28;20032;-60
2022/12/23 05:14:54;;;;;;;38.90;16.65;;;;;;;;;;5044059;28;20060;-60
2022/12/23 05:17:20;;;;;;;40.50;18.55;;;;;;;;;;5035808;28;20064;-60
2022/12/23 05:19:45;;;;;;;43.47;18.48;;;;;;;;;;5050585;28;20034;-61
2022/12/23 05:22:10;;;;;;;44.15;18.23;;;;;;;;;;5049681;28;20040;-60
2022/12/23 05:24:36;;;;;;;38.22;15.35;;;;;;;;;;5049246;28;20471;-60
2022/12/23 05:27:01;;;;;;;50.88;19.33;;;;;;;;;;5045145;28;20025;-60
2022/12/23 05:29:27;;;;;;;41.30;16.65;;;;;;;;;;5043298;28;20039;-60
2022/12/23 05:31:52;;;;;;;28.38;12.77;;;;;;;;;;5049709;28;20024;-61
2022/12/23 05:34:18;;;;;;;30.83;14.77;;;;;;;;;;5037933;28;20425;-60
2022/12/23 05:36:43;;;;;;;39.72;16.42;;;;;;;;;;5067412;28;20036;-59
2022/12/23 05:39:08;;;;;;;33.63;15.10;;;;;;;;;;5052421;28;20527;-60
2022/12/23 05:41:34;;;;;;;38.90;15.45;;;;;;;;;;5051617;28;20025;-60
2022/12/23 05:43:59;;;;;;;33.72;15.95;;;;;;;;;;5065916;28;20033;-60
2022/12/23 05:46:25;;;;;;;32.45;14.18;;;;;;;;;;5039732;28;20036;-61
2022/12/23 05:48:50;;;;;;;28.98;13.60;;;;;;;;;;5046937;28;20037;-61
2022/12/23 05:51:16;;;;;;;27.42;12.15;;;;;;;;;;5036243;28;20108;-60
2022/12/23 05:53:41;;;;;;;30.05;13.50;;;;;;;;;;5049039;28;20044;-60
2022/12/23 05:56:07;;;;;;;28.13;12.50;;;;;;;;;;5035040;28;20061;-60
2022/12/23 05:58:32;;;;;;;26.80;12.02;;;;;;;;;;5044069;28;20037;-60
2022/12/23 06:01:00;;;;;;;27.13;12.38;;;;;;;;;;5050927;28;20029;-60
2022/12/23 06:03:26;;;;;;;22.77;9.68;;;;;;;;;;5047854;28;20040;-60
2022/12/23 06:05:51;;;;;;;26.42;12.25;;;;;;;;;;5039605;28;20033;-60
2022/12/23 06:08:17;;;;;;;28.73;10.77;;;;;;;;;;5040562;28;20078;-60
2022/12/23 06:10:43;;;;;;;24.70;11.90;;;;;;;;;;5051674;28;20492;-60
2022/12/23 06:13:08;;;;;;;22.40;10.52;;;;;;;;;;5052280;28;20032;-60
2022/12/23 06:15:34;;;;;;;30.52;12.98;;;;;;;;;;5042970;28;20082;-60
2022/12/23 06:17:59;;;;;;;24.70;11.45;;;;;;;;;;5051582;28;20108;-60
2022/12/23 06:20:25;;;;;;;26.73;12.13;;;;;;;;;;5046851;28;20060;-60
2022/12/23 06:22:50;;;;;;;26.80;12.15;;;;;;;;;;5048379;28;20029;-61
2022/12/23 06:25:15;;;;;;;27.55;12.73;;;;;;;;;;5042465;28;20473;-60
2022/12/23 06:27:41;;;;;;;26.85;12.30;;;;;;;;;;5050790;28;20603;-61
2022/12/23 06:30:07;;;;;;;27.63;12.40;;;;;;;;;;5051127;28;20422;-60
2022/12/23 06:32:32;;;;;;;28.38;11.88;;;;;;;;;;5051032;28;20032;-60
2022/12/23 06:34:58;;;;;;;32.33;14.35;;;;;;;;;;5047210;28;20029;-60
2022/12/23 06:37:23;;;;;;;27.45;12.73;;;;;;;;;;5041127;28;20107;-61
2022/12/23 06:39:49;;;;;;;35.45;15.00;;;;;;;;;;5051561;28;20032;-60
2022/12/23 06:42:14;;;;;;;34.13;15.43;;;;;;;;;;5043709;28;20038;-60
2022/12/23 06:44:39;;;;;;;33.63;14.25;;;;;;;;;;5043091;28;20029;-60
2022/12/23 06:47:05;;;;;;;40.90;15.98;;;;;;;;;;5038489;28;20479;-60
2022/12/23 06:49:30;;;;;;;34.03;15.85;;;;;;;;;;5042033;28;20037;-60
2022/12/23 06:51:56;;;;;;;41.42;16.92;;;;;;;;;;5052166;28;20499;-60
2022/12/23 06:54:21;;;;;;;38.90;15.57;;;;;;;;;;5051317;28;20441;-60
2022/12/23 06:56:47;;;;;;;35.67;14.02;;;;;;;;;;5058123;28;20068;-60
2022/12/23 06:59:12;;;;;;;39.55;15.73;;;;;;;;;;5050765;28;20113;-60
2022/12/23 07:01:39;;;;;;;40.10;16.70;;;;;;;;;;5048370;28;20715;-60
2022/12/23 07:04:04;;;;;;;39.25;16.25;;;;;;;;;;5048895;28;20056;-60
2022/12/23 07:06:30;;;;;;;42.78;16.70;;;;;;;;;;5050330;28;20145;-60
2022/12/23 07:08:55;;;;;;;42.92;16.83;;;;;;;;;;5052314;28;20458;-60
2022/12/23 07:11:21;;;;;;;43.92;17.52;;;;;;;;;;5049070;28;20110;-61
2022/12/23 07:13:46;;;;;;;43.83;16.98;;;;;;;;;;5047974;28;20428;-61
2022/12/23 07:16:12;;;;;;;40.75;17.33;;;;;;;;;;5046986;28;20029;-60
2022/12/23 07:18:37;;;;;;;41.67;16.35;;;;;;;;;;5051562;28;20108;-61
2022/12/23 07:21:03;;;;;;;37.67;15.77;;;;;;;;;;5052843;28;20047;-61
2022/12/23 07:23:29;;;;;;;37.33;15.18;;;;;;;;;;5050661;28;20037;-60
2022/12/23 07:25:56;;;;;;;41.05;14.80;;;;;;;;;;5052584;28;20028;-60
2022/12/23 07:28:22;;;;;;;38.17;14.80;;;;;;;;;;5067238;28;20034;-60
2022/12/23 07:30:47;;;;;;;36.53;14.35;;;;;;;;;;5052550;28;20029;-60
2022/12/23 07:33:13;;;;;;;37.50;14.90;;;;;;;;;;5052410;28;20036;-60
2022/12/23 07:35:41;;;;;;;33.28;13.82;;;;;;;;;;5051246;28;20025;-61
2022/12/23 07:38:07;;;;;;;32.97;13.82;;;;;;;;;;5052624;28;20123;-60
2022/12/23 07:40:34;;;;;;;32.58;14.10;;;;;;;;;;5050154;28;20029;-60
2022/12/23 07:43:00;;;;;;;33.78;13.60;;;;;;;;;;5052136;28;20158;-61
2022/12/23 07:45:27;;;;;;;32.08;13.75;;;;;;;;;;5051281;28;20401;-61
2022/12/23 07:47:59;;;;;;;30.15;11.63;;;;;;;;;;5049331;28;20029;-60
2022/12/23 07:50:25;;;;;;;30.90;12.57;;;;;;;;;;5034172;28;20397;-61
2022/12/23 07:52:51;;;;;;;35.42;13.88;;;;;;;;;;5034748;28;20028;-60
2022/12/23 07:55:17;;;;;;;31.30;13.07;;;;;;;;;;5052261;28;20052;-61
2022/12/23 07:57:47;;;;;;;31.88;13.18;;;;;;;;;;5050919;28;20068;-61
2022/12/23 08:00:13;;;;;;;30.58;12.93;;;;;;;;;;5050932;28;20028;-58
2022/12/23 08:02:39;;;;;;;24.75;10.52;;;;;;;;;;5050946;28;20040;-60
2022/12/23 08:05:06;;;;;;;31.23;12.07;;;;;;;;;;5055245;28;20035;-60
2022/12/23 08:07:31;;;;;;;26.40;11.48;;;;;;;;;;5069996;28;20036;-60
2022/12/23 08:09:56;;;;;;;25.05;11.35;;;;;;;;;;5070894;28;20086;-59
2022/12/23 08:12:22;;;;;;;23.27;9.98;;;;;;;;;;5053105;28;20033;-61
2022/12/23 08:14:49;;;;;;;24.35;10.52;;;;;;;;;;5032885;28;20533;-60
2022/12/23 08:17:14;;;;;;;21.35;9.27;;;;;;;;;;5049728;28;20060;-59
2022/12/23 08:19:40;;;;;;;25.00;9.77;;;;;;;;;;5049169;28;20056;-63
2022/12/23 08:22:05;;;;;;;20.70;9.30;;;;;;;;;;5050851;28;20040;-60
2022/12/23 08:24:31;;;;;;;18.67;9.20;;;;;;;;;;5048873;28;20126;-61
2022/12/23 08:26:57;;;;;;;23.70;10.70;;;;;;;;;;5050655;28;20021;-61
2022/12/23 08:29:22;;;;;;;25.20;10.82;;;;;;;;;;5051247;28;20087;-61
2022/12/23 08:31:49;;;;;;;24.38;10.88;;;;;;;;;;5046066;28;20060;-60
2022/12/23 08:34:15;;;;;;;27.58;12.35;;;;;;;;;;5051147;28;20393;-61
2022/12/23 08:36:41;;;;;;;31.35;12.25;;;;;;;;;;5050917;28;20036;-60
2022/12/23 08:39:10;;;;;;;29.45;12.80;;;;;;;;;;5051931;28;20056;-61
2022/12/23 08:41:40;;;;;;;38.78;13.98;;;;;;;;;;5058316;28;20064;-61
2022/12/23 08:44:06;;;;;;;40.60;15.73;;;;;;;;;;5071910;28;20091;-61
2022/12/23 08:46:32;;;;;;;48.53;16.55;;;;;;;;;;5052325;28;20394;-61
2022/12/23 08:48:58;;;;;;;44.90;17.17;;;;;;;;;;5051038;28;20143;-60
2022/12/23 08:51:24;;;;;;;50.13;17.98;;;;;;;;;;5051232;28;20470;-60
2022/12/23 08:53:53;;;;;;;45.95;15.52;;;;;;;;;;5050843;28;20474;-60
2022/12/23 08:56:20;;;;;;;56.05;18.08;;;;;;;;;;5049176;28;20064;-60
2022/12/23 08:58:48;;;;;;;49.75;18.70;;;;;;;;;;5048232;28;20055;-60
2022/12/23 09:01:16;;;;;;;57.90;19.17;;;;;;;;;;5041037;28;20034;-60
2022/12/23 09:03:43;;;;;;;49.72;18.40;;;;;;;;;;5030237;28;20056;-60
2022/12/23 09:06:11;;;;;;;49.67;17.83;;;;;;;;;;5037250;28;20035;-59
2022/12/23 09:08:36;;;;;;;55.03;18.67;;;;;;;;;;5070490;28;20448;-59
2022/12/23 09:11:02;;;;;;;46.63;17.80;;;;;;;;;;5058431;28;20056;-60
2022/12/23 09:13:28;;;;;;;53.40;18.70;;;;;;;;;;5052666;28;20033;-62
2022/12/23 09:15:54;;;;;;;46.72;18.33;;;;;;;;;;5051422;28;20024;-60
2022/12/23 09:18:20;;;;;;;57.60;19.08;;;;;;;;;;5054789;28;20067;-62
2022/12/23 09:20:45;;;;;;;52.33;18.80;;;;;;;;;;5049831;28;20029;-60
2022/12/23 09:23:11;;;;;;;48.42;17.63;;;;;;;;;;5055862;28;20032;-60
2022/12/23 09:25:36;;;;;;;50.53;18.30;;;;;;;;;;5053424;28;20025;-60
2022/12/23 09:28:03;;;;;;;48.58;18.10;;;;;;;;;;5053051;28;20044;-60
2022/12/23 09:30:29;;;;;;;46.33;17.65;;;;;;;;;;5053197;28;20082;-65
2022/12/23 09:32:54;;;;;;;52.90;18.55;;;;;;;;;;5053230;28;20437;-60
2022/12/23 09:35:20;;;;;;;45.75;17.15;;;;;;;;;;5052949;28;20066;-59
2022/12/23 09:37:45;;;;;;;45.63;16.10;;;;;;;;;;5051833;28;20066;-59
2022/12/23 09:40:12;;;;;;;44.10;16.65;;;;;;;;;;5054454;28;20116;-59
2022/12/23 09:43:13;;;;;;;50.22;17.13;;;;;;;;;;5052524;28;20072;-60
2022/12/23 09:46:14;;;;;;;50.35;17.48;;;;;;;;;;5027534;28;20086;-60
2022/12/23 09:48:44;;;;;;;48.85;15.75;;;;;;;;;;5027871;28;20119;-61
2022/12/23 09:51:12;;;;;;;47.22;16.13;;;;;;;;;;5054843;28;20029;-59
2022/12/23 09:53:56;;;;;;;44.55;16.42;;;;;;;;;;5049790;28;20032;-60
2022/12/23 09:56:33;;;;;;;40.55;16.20;;;;;;;;;;5048920;28;20103;-59
2022/12/23 09:59:33;;;;;;;42.47;15.27;;;;;;;;;;5051905;28;20029;-60
2022/12/23 10:02:26;;;;;;;40.00;15.45;;;;;;;;;;5050293;28;20530;-60
2022/12/23 10:05:03;;;;;;;39.97;14.27;;;;;;;;;;5052036;28;20125;-60
2022/12/23 10:07:57;;;;;;;33.55;13.27;;;;;;;;;;5053313;28;20044;-60
2022/12/23 10:10:42;;;;;;;40.55;15.25;;;;;;;;;;5052304;28;20029;-60
2022/12/23 10:13:18;;;;;;;39.58;14.35;;;;;;;;;;5052771;28;20079;-59
2022/12/23 10:15:47;;;;;;;36.97;14.40;;;;;;;;;;5052893;28;20032;-60
2022/12/23 10:18:23;;;;;;;35.03;13.95;;;;;;;;;;5052668;28;20032;-59
2022/12/23 10:21:05;;;;;;;37.33;13.52;;;;;;;;;;5051787;28;20124;-60
2022/12/23 10:23:36;;;;;;;35.65;14.60;;;;;;;;;;5053558;28;20033;-60
2022/12/23 10:26:30;;;;;;;36.83;13.55;;;;;;;;;;5053593;28;20409;-58
2022/12/23 10:29:19;;;;;;;34.42;13.10;;;;;;;;;;5049043;28;20029;-59
2022/12/23 10:32:22;;;;;;;34.92;14.43;;;;;;;;;;5048805;28;20032;-59
2022/12/23 10:34:59;;;;;;;34.78;13.63;;;;;;;;;;5050702;28;20029;-60
2022/12/23 10:37:38;;;;;;;32.47;13.63;;;;;;;;;;5048156;28;20029;-63
2022/12/23 10:40:34;;;;;;;37.53;14.35;;;;;;;;;;5052108;28;20123;-61
2022/12/23 10:43:26;;;;;;;37.58;14.57;;;;;;;;;;5053210;28;20039;-59
2022/12/23 10:46:22;;;;;;;35.97;14.10;;;;;;;;;;5051331;28;20036;-60
2022/12/23 10:49:15;;;;;;;35.70;13.93;;;;;;;;;;5051415;28;20095;-61
2022/12/23 10:51:56;;;;;;;40.22;15.43;;;;;;;;;;5049634;28;20037;-61
2022/12/23 10:54:33;;;;;;;33.92;15.07;;;;;;;;;;5050039;28;21383;-61
2022/12/23 10:57:00;;;;;;;34.85;15.02;;;;;;;;;;5049529;28;20106;-61
2022/12/23 10:59:29;;;;;;;33.67;14.38;;;;;;;;;;5052863;28;20036;-61
2022/12/23 11:02:38;;;;;;;33.17;14.13;;;;;;;;;;5048300;28;20482;-60
2022/12/23 11:05:11;;;;;;;31.30;13.18;;;;;;;;;;5044400;28;20129;-61
2022/12/23 11:07:36;;;;;;;31.90;12.73;;;;;;;;;;5052414;28;20029;-62
2022/12/23 11:10:06;;;;;;;34.65;13.05;;;;;;;;;;5052620;28;20040;-61
2022/12/23 11:12:44;;;;;;;29.15;13.35;;;;;;;;;;5038975;28;20117;-61
2022/12/23 11:15:28;;;;;;;31.85;13.45;;;;;;;;;;5033164;28;20033;-61
2022/12/23 11:18:11;;;;;;;33.00;14.07;;;;;;;;;;5039027;28;20210;-61
2022/12/23 11:20:37;;;;;;;30.80;14.07;;;;;;;;;;5051049;28;20037;-61
2022/12/23 11:23:05;;;;;;;24.73;12.68;;;;;;;;;;5052896;28;20428;-61
2022/12/23 11:25:32;;;;;;;29.48;14.10;;;;;;;;;;5051523;28;20033;-62
2022/12/23 11:28:06;;;;;;;34.22;13.38;;;;;;;;;;5048941;28;20111;-62
2022/12/23 11:30:56;;;;;;;26.55;12.52;;;;;;;;;;5047784;28;20041;-61
2022/12/23 11:33:31;;;;;;;29.95;13.35;;;;;;;;;;5050542;28;20055;-64
2022/12/23 11:36:11;;;;;;;25.80;12.27;;;;;;;;;;5051950;28;20099;-61
2022/12/23 11:38:53;;;;;;;25.05;11.60;;;;;;;;;;5051756;28;20424;-65
2022/12/23 11:41:22;;;;;;;29.38;12.80;;;;;;;;;;5051422;28;20095;-61
2022/12/23 11:44:30;;;;;;;26.73;12.20;;;;;;;;;;5055015;28;20041;-61
2022/12/23 11:46:56;;;;;;;25.35;11.93;;;;;;;;;;5047343;28;20257;-61
2022/12/23 11:49:23;;;;;;;23.80;11.90;;;;;;;;;;5048964;28;20520;-61
2022/12/23 11:52:04;;;;;;;26.08;11.77;;;;;;;;;;5034539;28;20091;-61
2022/12/23 11:54:31;;;;;;;22.88;11.73;;;;;;;;;;5042121;28;20100;-61
2022/12/23 11:56:58;;;;;;;20.38;10.95;;;;;;;;;;5049572;28;20099;-61
2022/12/23 11:59:33;;;;;;;25.63;11.32;;;;;;;;;;5050168;28;20039;-61
2022/12/23 12:02:04;;;;;;;24.98;11.65;;;;;;;;;;5048841;28;20061;-61
2022/12/23 12:04:32;;;;;;;;;;;;;;;;;;5052395;28;20025;-61
2022/12/23 12:06:59;;;;;;;23.95;11.57;;;;;;;;;;5047480;28;19912;-62
2022/12/23 12:09:26;;;;;;;21.25;11.05;;;;;;;;;;5050371;28;20025;-61
2022/12/23 12:11:56;;;;;;;25.17;11.20;;;;;;;;;;5049234;28;20444;-61
2022/12/23 12:14:31;;;;;;;22.77;11.43;;;;;;;;;;5049977;28;20033;-62
2022/12/23 12:17:04;;;;;;;21.73;11.57;;;;;;;;;;5051186;28;20037;-61
2022/12/23 12:19:39;;;;;;;22.88;11.93;;;;;;;;;;5050924;28;20032;-62
2022/12/23 12:22:17;;;;;;;24.10;11.48;;;;;;;;;;5051424;28;20028;-62
2022/12/23 12:24:54;;;;;;;23.27;11.02;;;;;;;;;;5049765;28;20613;-62
2022/12/23 12:27:32;;;;;;;22.27;10.73;;;;;;;;;;5051152;28;20393;-62
2022/12/23 12:30:03;;;;;;;21.48;11.05;;;;;;;;;;5047030;28;20532;-62
2022/12/23 12:32:46;;;;;;;21.42;11.18;;;;;;;;;;5050788;28;20086;-63
2022/12/23 12:35:21;;;;;;;24.02;11.05;;;;;;;;;;5049391;28;20041;-62
2022/12/23 12:37:55;;;;;;;22.48;10.35;;;;;;;;;;5065062;28;20036;-63
2022/12/23 12:40:30;;;;;;;18.83;9.95;;;;;;;;;;5049904;28;20441;-62
2022/12/23 12:43:42;;;;;;;19.05;10.52;;;;;;;;;;5048267;28;20052;-63
2022/12/23 12:46:19;;;;;;;20.58;9.95;;;;;;;;;;4987468;28;20076;-63
2022/12/23 12:48:56;;;;;;;18.88;10.52;;;;;;;;;;5049294;28;20025;-63
2022/12/23 12:51:27;;;;;;;19.30;10.23;;;;;;;;;;5063293;28;20124;-63
2022/12/23 12:54:02;;;;;;;;;;;;;;;;;;5067542;28;20041;-63
2022/12/23 12:56:33;;;;;;;19.83;9.38;;;;;;;;;;5058261;28;19916;-62
2022/12/23 12:58:59;;;;;;;18.58;9.50;;;;;;;;;;5068770;28;20116;-63
2022/12/23 13:01:44;;;;;;;20.05;10.35;;;;;;;;;;5054522;28;20112;-64
2022/12/23 13:04:21;;;;;;;19.92;10.65;;;;;;;;;;5054220;28;20048;-62
2022/12/23 13:06:53;;;;;;;19.48;10.20;;;;;;;;;;5054467;28;20025;-62
2022/12/23 13:09:46;;;;;;;22.42;10.75;;;;;;;;;;5053905;28;20041;-63
2022/12/23 13:12:39;;;;;;;22.05;10.95;;;;;;;;;;5052955;28;20036;-62
2022/12/23 13:15:04;;;;;;;20.05;10.57;;;;;;;;;;5051236;28;20044;-62
2022/12/23 13:17:46;;;;;;;22.13;10.88;;;;;;;;;;5053434;28;20021;-63
2022/12/23 13:20:24;;;;;;;20.83;10.73;;;;;;;;;;5044976;28;20463;-61
2022/12/23 13:22:57;;;;;;;21.70;11.52;;;;;;;;;;5041870;28;20095;-61
2022/12/23 13:25:31;;;;;;;26.13;12.30;;;;;;;;;;5054092;28;20477;-60
2022/12/23 13:28:12;;;;;;;26.88;12.82;;;;;;;;;;5057423;28;20037;-61
2022/12/23 13:30:46;;;;;;;25.93;12.83;;;;;;;;;;5033462;28;20049;-62
2022/12/23 13:33:11;;;;;;;29.30;13.18;;;;;;;;;;5059428;28;20285;-62
2022/12/23 13:35:55;;;;;;;27.30;13.15;;;;;;;;;;5070788;28;20453;-61
2022/12/23 13:38:20;;;;;;;26.27;12.38;;;;;;;;;;5052973;28;20075;-61
2022/12/23 13:41:19;;;;;;;23.05;11.75;;;;;;;;;;5052895;28;20064;-61
2022/12/23 13:43:59;;;;;;;27.13;11.00;;;;;;;;;;5033438;28;20033;-63
2022/12/23 13:46:36;;;;;;;21.77;11.05;;;;;;;;;;5048858;28;20494;-61
2022/12/23 13:49:46;;;;;;;26.15;11.40;;;;;;;;;;5055302;28;20169;-60
2022/12/23 13:52:19;;;;;;;24.42;10.55;;;;;;;;;;5054012;28;20040;-61
2022/12/23 13:55:03;;;;;;;22.15;10.82;;;;;;;;;;5051056;28;20035;-61
2022/12/23 13:57:28;;;;;;;24.60;10.40;;;;;;;;;;5053869;28;20056;-61
2022/12/23 14:00:17;;;;;;;21.30;10.52;;;;;;;;;;5060819;28;20051;-61
2022/12/23 14:02:51;;;;;;;22.80;10.45;;;;;;;;;;5052192;28;20076;-61
2022/12/23 14:05:39;;;;;;;24.27;11.00;;;;;;;;;;5053384;28;20060;-62
2022/12/23 14:08:17;;;;;;;21.58;10.10;;;;;;;;;;5053301;28;20048;-62
2022/12/23 14:11:02;;;;;;;18.80;9.82;;;;;;;;;;5051897;28;20051;-61
2022/12/23 14:13:41;;;;;;;19.30;8.93;;;;;;;;;;5053744;28;20028;-61
2022/12/23 14:16:16;;;;;;;19.77;8.93;;;;;;;;;;5049799;28;20571;-63
2022/12/23 14:19:09;;;;;;;16.70;7.93;;;;;;;;;;5052349;28;20106;-63
2022/12/23 14:22:22;;;;;;;16.95;7.97;;;;;;;;;;5053034;28;20037;-61
2022/12/23 14:25:08;;;;;;;16.67;8.40;;;;;;;;;;5010109;28;20049;-62
2022/12/23 14:27:56;;;;;;;16.92;7.72;;;;;;;;;;5050743;28;20465;-61
2022/12/23 14:30:36;;;;;;;18.20;8.65;;;;;;;;;;5058240;28;20051;-62
2022/12/23 14:33:13;;;;;;;18.73;9.10;;;;;;;;;;5052607;28;20112;-63
2022/12/23 14:35:38;;;;;;;18.10;9.65;;;;;;;;;;5053504;28;20035;-62
2022/12/23 14:38:07;;;;;;;19.10;9.50;;;;;;;;;;5052433;28;20097;-61
2022/12/23 14:40:52;;;;;;;18.73;9.23;;;;;;;;;;5053567;28;20035;-61
2022/12/23 14:43:21;;;;;;;16.73;8.82;;;;;;;;;;5044761;28;20534;-62
2022/12/23 14:46:03;;;;;;;18.63;8.50;;;;;;;;;;5050863;28;20032;-63
2022/12/23 14:48:34;;;;;;;20.40;9.35;;;;;;;;;;5052492;28;20478;-62
2022/12/23 14:51:18;;;;;;;17.33;9.57;;;;;;;;;;5052211;28;20052;-62
2022/12/23 14:53:50;;;;;;;19.90;9.35;;;;;;;;;;5053083;28;20036;-61
2022/12/23 14:56:18;;;;;;;21.45;9.60;;;;;;;;;;5051291;28;20053;-60
2022/12/23 14:58:50;;;;;;;20.35;9.88;;;;;;;;;;5051732;28;20040;-60
2022/12/23 15:01:40;;;;;;;20.20;9.50;;;;;;;;;;5045818;28;20037;-61
2022/12/23 15:04:20;;;;;;;18.67;9.60;;;;;;;;;;5032416;28;20517;-61
2022/12/23 15:07:15;;;;;;;21.92;10.10;;;;;;;;;;5045195;28;20021;-60
2022/12/23 15:09:54;;;;;;;20.30;10.15;;;;;;;;;;5050076;28;20374;-60
2022/12/23 15:12:29;;;;;;;22.20;10.80;;;;;;;;;;5052412;28;20033;-60
2022/12/23 15:14:58;;;;;;;25.42;11.80;;;;;;;;;;5050134;28;20060;-60
2022/12/23 15:17:34;;;;;;;19.52;8.98;;;;;;;;;;5049855;28;20021;-60
2022/12/23 15:20:09;;;;;;;17.92;8.65;;;;;;;;;;5049683;28;20501;-60